Home > Products > Valid Products > TAF

000
FTUS43 KDDC 141124
TAFGCK
TAF
KGCK 141124Z 1412/1512 36009KT P6SM SCT150=



000
FTUS43 KDDC 141124
TAFDDC
TAF
KDDC 141124Z 1412/1512 34010KT P6SM SCT150=



000
FTUS43 KDDC 141124
TAFHYS
TAF
KHYS 141124Z 1412/1512 33010KT P6SM SCT150=



000
FTUS43 KDDC 140754 AAA
TAFGCK
TAF AMD
KGCK 140754Z 1408/1506 35015G23KT P6SM SCT250
     FM141800 36010G20KT P6SM SCT150 BKN250
     FM142100 VRB04KT P6SM SCT150 BKN250=



000
FTUS43 KDDC 140521
TAFGCK
TAF
KGCK 140521Z 1406/1506 10008KT P6SM BKN250
     FM140900 35013G23KT P6SM SCT250
     FM141800 36010G20KT P6SM SCT150 BKN250
     FM142100 VRB04KT P6SM SCT150 BKN250=



000
FTUS43 KDDC 140521
TAFDDC
TAF
KDDC 140521Z 1406/1506 14008KT P6SM BKN200
     FM140900 34013G23KT P6SM SCT200
     FM141800 36010G20KT P6SM SCT250
     FM142300 VRB04KT P6SM BKN090=



000
FTUS43 KDDC 140521
TAFHYS
TAF
KHYS 140521Z 1406/1506 VRB05KT P6SM BKN250
     FM140900 31010G20KT P6SM SCT250
     FM141800 35013G23KT P6SM SCT150 BKN250
     FM142100 27007KT P6SM SCT150 SCT250=



000
FTUS43 KDDC 140521
TAFHYS
TAF
KHYS 140521Z 1406/1506 VRB05KT P6SM BKN250
     FM140900 31010G20KT P6SM SCT250
     FM141800 35013G23KT P6SM SCT150 BKN250
     FM142100 27007KT P6SM SCT150 SCT250=



000
FTUS43 KDDC 140521
TAFDDC
TAF
KDDC 140521Z 1406/1506 14008KT P6SM BKN200
     FM140900 34013G23KT P6SM SCT200
     FM141800 36010G20KT P6SM SCT250
     FM142300 VRB04KT P6SM BKN090=



000
FTUS43 KDDC 140349 AAA
TAFDDC
TAF AMD
KDDC 140349Z 1404/1424 10009KT P6SM SCT200
     FM140600 14008KT P6SM BKN200
     FM140900 34013G23KT P6SM SCT200
     FM141800 36010G20KT P6SM SCT250
     FM142300 VRB04KT P6SM BKN090=



000
FTUS43 KDDC 140349 AAA
TAFHYS
TAF AMD
KHYS 140349Z 1404/1424 12009KT P6SM BKN200
     FM140600 VRB05KT P6SM BKN250
     FM140900 31010G20KT P6SM SCT250
     FM141800 35013G23KT P6SM SCT150 BKN250
     FM142100 27007KT P6SM SCT150 SCT250=



000
FTUS43 KDDC 140349 AAA
TAFHYS
TAF AMD
KHYS 140349Z 1404/1424 12009KT P6SM BKN200
     FM140600 VRB05KT P6SM BKN250
     FM140900 31010G20KT P6SM SCT250
     FM141800 35013G23KT P6SM SCT150 BKN250
     FM142100 27007KT P6SM SCT150 SCT250=



000
FTUS43 KDDC 140349 AAA
TAFGCK
TAF AMD
KGCK 140349Z 1404/1424 08010KT P6SM SCT200
     FM140600 10008KT P6SM BKN250
     FM140900 35013G23KT P6SM SCT250
     FM141800 36010G20KT P6SM SCT150 BKN250
     FM142100 VRB04KT P6SM SCT150 BKN250=



000
FTUS43 KDDC 140349 AAA
TAFGCK
TAF AMD
KGCK 140349Z 1404/1424 08010KT P6SM SCT200
     FM140600 10008KT P6SM BKN250
     FM140900 35013G23KT P6SM SCT250
     FM141800 36010G20KT P6SM SCT150 BKN250
     FM142100 VRB04KT P6SM SCT150 BKN250=



000
FTUS43 KDDC 140349 AAA
TAFGCK
TAF AMD
KGCK 140349Z 1404/1424 08010KT P6SM SCT200
     FM140600 10008KT P6SM BKN250
     FM140900 35013G23KT P6SM SCT250
     FM141800 36010G20KT P6SM SCT150 BKN250
     FM142100 VRB04KT P6SM SCT150 BKN250=



000
FTUS43 KDDC 140349 AAA
TAFDDC
TAF AMD
KDDC 140349Z 1404/1424 10009KT P6SM SCT200
     FM140600 14008KT P6SM BKN200
     FM140900 34013G23KT P6SM SCT200
     FM141800 36010G20KT P6SM SCT250
     FM142300 VRB04KT P6SM BKN090=



000
FTUS43 KDDC 140349 AAA
TAFHYS
TAF AMD
KHYS 140349Z 1404/1424 12009KT P6SM BKN200
     FM140600 VRB05KT P6SM BKN250
     FM140900 31010G20KT P6SM SCT250
     FM141800 35013G23KT P6SM SCT150 BKN250
     FM142100 27007KT P6SM SCT150 SCT250=



000
FTUS43 KDDC 132320
TAFHYS
TAF
KHYS 132320Z 1400/1424 13015G25KT P6SM OVC200
     FM140600 VRB05KT P6SM BKN250
     FM140900 31010G20KT P6SM SCT250
     FM141800 35013G23KT P6SM SCT150 BKN250
     FM142100 27007KT P6SM SCT150 SCT250=



000
FTUS43 KDDC 132320
TAFHYS
TAF
KHYS 132320Z 1400/1424 13015G25KT P6SM OVC200
     FM140600 VRB05KT P6SM BKN250
     FM140900 31010G20KT P6SM SCT250
     FM141800 35013G23KT P6SM SCT150 BKN250
     FM142100 27007KT P6SM SCT150 SCT250=



000
FTUS43 KDDC 132320
TAFGCK
TAF
KGCK 132320Z 1400/1424 14015G25KT P6SM BKN250
     FM140600 10008KT P6SM BKN250
     FM140900 35013G23KT P6SM SCT250
     FM141800 36010G20KT P6SM SCT150 BKN250
     FM142100 VRB04KT P6SM SCT150 BKN250=



000
FTUS43 KDDC 132320
TAFDDC
TAF
KDDC 132320Z 1400/1424 14015G25KT P6SM BKN250
     FM140600 14008KT P6SM BKN200
     FM140900 34013G23KT P6SM SCT200
     FM141800 36010G20KT P6SM SCT250
     FM142300 VRB04KT P6SM BKN090=



000
FTUS43 KDDC 132320
TAFHYS
TAF
KHYS 132320Z 1400/1424 13015G25KT P6SM OVC200
     FM140600 VRB05KT P6SM BKN250
     FM140900 31010G20KT P6SM SCT250
     FM141800 35013G23KT P6SM SCT150 BKN250
     FM142100 27007KT P6SM SCT150 SCT250=



000
FTUS43 KDDC 132320
TAFDDC
TAF
KDDC 132320Z 1400/1424 14015G25KT P6SM BKN250
     FM140600 14008KT P6SM BKN200
     FM140900 34013G23KT P6SM SCT200
     FM141800 36010G20KT P6SM SCT250
     FM142300 VRB04KT P6SM BKN090=



000
FTUS43 KDDC 132320
TAFGCK
TAF
KGCK 132320Z 1400/1424 14015G25KT P6SM BKN250
     FM140600 10008KT P6SM BKN250
     FM140900 35013G23KT P6SM SCT250
     FM141800 36010G20KT P6SM SCT150 BKN250
     FM142100 VRB04KT P6SM SCT150 BKN250=



000
FTUS43 KDDC 132320
TAFGCK
TAF
KGCK 132320Z 1400/1424 14015G25KT P6SM BKN250
     FM140600 10008KT P6SM BKN250
     FM140900 35013G23KT P6SM SCT250
     FM141800 36010G20KT P6SM SCT150 BKN250
     FM142100 VRB04KT P6SM SCT150 BKN250=



000
FTUS43 KDDC 132320
TAFDDC
TAF
KDDC 132320Z 1400/1424 14015G25KT P6SM BKN250
     FM140600 14008KT P6SM BKN200
     FM140900 34013G23KT P6SM SCT200
     FM141800 36010G20KT P6SM SCT250
     FM142300 VRB04KT P6SM BKN090=



000
FTUS43 KDDC 132034 AAA
TAFHYS
TAF AMD
KHYS 132034Z 1321/1418 16013KT P6SM SCT200
     FM140000 14010KT P6SM FEW200=



000
FTUS43 KDDC 132033 AAB
TAFGCK
TAF AMD
KGCK 132033Z 1321/1418 16015G25KT P6SM SCT200
     FM140000 13010KT P6SM FEW200=



000
FTUS43 KDDC 132033 AAC
TAFDDC
TAF AMD
KDDC 132033Z 1321/1418 17015KT P6SM SCT200
     FM140000 13010KT P6SM FEW200=



000
FTUS43 KDDC 132033 AAB
TAFGCK
TAF AMD
KGCK 132033Z 1321/1418 16015G25KT P6SM SCT200
     FM140000 13010KT P6SM FEW200=



000
FTUS43 KDDC 131832 AAA
TAFGCK
TAF AMD
KGCK 131832Z 1319/1418 17020G30KT P6SM BKN015
     FM132200 16015G25KT P6SM SCT200
     FM140000 13010KT P6SM FEW200=



000
FTUS43 KDDC 131759
TAFGCK
TAF
KGCK 131759Z 1318/1418 17020G30KT P6SM BKN010
     FM132200 16015G25KT P6SM SCT200
     FM140000 13010KT P6SM FEW200=



000
FTUS43 KDDC 131759
TAFDDC
TAF
KDDC 131759Z 1318/1418 17020G30KT P6SM SCT200
     FM140000 13010KT P6SM FEW200=



000
FTUS43 KDDC 131759
TAFHYS
TAF
KHYS 131759Z 1318/1418 16015G25KT P6SM SCT200
     FM140000 14010KT P6SM FEW200=



000
FTUS43 KDDC 131759
TAFDDC
TAF
KDDC 131759Z 1318/1418 17020G30KT P6SM SCT200
     FM140000 13010KT P6SM FEW200=



000
FTUS43 KDDC 131759
TAFHYS
TAF
KHYS 131759Z 1318/1418 16015G25KT P6SM SCT200
     FM140000 14010KT P6SM FEW200=



000
FTUS43 KDDC 131759
TAFGCK
TAF
KGCK 131759Z 1318/1418 17020G30KT P6SM BKN010
     FM132200 16015G25KT P6SM SCT200
     FM140000 13010KT P6SM FEW200=



000
FTUS43 KDDC 131759
TAFDDC
TAF
KDDC 131759Z 1318/1418 17020G30KT P6SM SCT200
     FM140000 13010KT P6SM FEW200=



000
FTUS43 KDDC 131759
TAFHYS
TAF
KHYS 131759Z 1318/1418 16015G25KT P6SM SCT200
     FM140000 14010KT P6SM FEW200=



000
FTUS43 KDDC 131759
TAFGCK
TAF
KGCK 131759Z 1318/1418 17020G30KT P6SM BKN010
     FM132200 16015G25KT P6SM SCT200
     FM140000 13010KT P6SM FEW200=



000
FTUS43 KDDC 131432 AAA
TAFGCK
TAF AMD
KGCK 131432Z 1315/1412 16012KT P6SM OVC007
      TEMPO 1315/1317 5SM BR
     FM131800 17020G30KT P6SM SCT200
     FM140000 13010KT P6SM FEW200=



000
FTUS43 KDDC 131432 AAA
TAFHYS
TAF AMD
KHYS 131432Z 1315/1412 15010KT P6SM BKN040
     FM131900 16015G25KT P6SM SCT050 SCT200
     FM140000 14010KT P6SM FEW200=



000
FTUS43 KDDC 131430 AAA
TAFDDC
TAF AMD
KDDC 131430Z 1315/1412 13010KT P6SM BKN200
      TEMPO 1315/1317 BKN010
     FM131800 17020G30KT P6SM SCT200
     FM140000 13010KT P6SM FEW200=



000
FTUS43 KDDC 131134
TAFHYS
TAF
KHYS 131134Z 1312/1412 09009KT P6SM FEW020 BKN200
     FM131500 15012KT P6SM BKN040
     FM131900 16015G22KT P6SM SCT050 SCT200
     FM140000 14010KT P6SM FEW200=



000
FTUS43 KDDC 131134
TAFGCK
TAF
KGCK 131134Z 1312/1412 16012KT P6SM OVC010
      TEMPO 1312/1316 5SM BR OVC007
     FM131800 17018G25KT P6SM SCT200
     FM140000 13010KT P6SM FEW200=



000
FTUS43 KDDC 131134
TAFHYS
TAF
KHYS 131134Z 1312/1412 09009KT P6SM FEW020 BKN200
     FM131500 15012KT P6SM BKN040
     FM131900 16015G22KT P6SM SCT050 SCT200
     FM140000 14010KT P6SM FEW200=



000
FTUS43 KDDC 131134
TAFDDC
TAF
KDDC 131134Z 1312/1412 13010KT 6SM BR SCT015 BKN200
      TEMPO 1313/1317 BKN010
     FM131800 17018G25KT P6SM SCT200
     FM140000 13010KT P6SM FEW200=



000
FTUS43 KDDC 131134
TAFDDC
TAF
KDDC 131134Z 1312/1412 13010KT 6SM BR SCT015 BKN200
      TEMPO 1313/1317 BKN010
     FM131800 17018G25KT P6SM SCT200
     FM140000 13010KT P6SM FEW200=



000
FTUS43 KDDC 131134
TAFGCK
TAF
KGCK 131134Z 1312/1412 16012KT P6SM OVC010
      TEMPO 1312/1316 5SM BR OVC007
     FM131800 17018G25KT P6SM SCT200
     FM140000 13010KT P6SM FEW200=



000
FTUS43 KDDC 131134
TAFGCK
TAF
KGCK 131134Z 1312/1412 16012KT P6SM OVC010
      TEMPO 1312/1316 5SM BR OVC007
     FM131800 17018G25KT P6SM SCT200
     FM140000 13010KT P6SM FEW200=



000
FTUS43 KDDC 131134
TAFDDC
TAF
KDDC 131134Z 1312/1412 13010KT 6SM BR SCT015 BKN200
      TEMPO 1313/1317 BKN010
     FM131800 17018G25KT P6SM SCT200
     FM140000 13010KT P6SM FEW200=



000
FTUS43 KDDC 131134
TAFHYS
TAF
KHYS 131134Z 1312/1412 09009KT P6SM FEW020 BKN200
     FM131500 15012KT P6SM BKN040
     FM131900 16015G22KT P6SM SCT050 SCT200
     FM140000 14010KT P6SM FEW200=



000
FTUS43 KDDC 130549 RRA
TAFGCK
TAF
KGCK 130549Z 1306/1406 11012KT P6SM OVC015
     FM130900 14012KT P6SM OVC010
      TEMPO 1309/1313 5SM -DZSN OVC007
     FM131500 15015G23KT P6SM OVC020
     FM131800 17018G25KT P6SM SCT050
     FM140000 13012KT P6SM SKC=



000
FTUS43 KDDC 130549 RRA
TAFDDC
TAF
KDDC 130549Z 1306/1406 11007KT P6SM SCT015
     FM130800 11007KT P6SM OVC010
     FM131800 17018G25KT P6SM SCT110
     FM140000 13012KT P6SM SKC=



000
FTUS43 KDDC 130549 RRA
TAFGCK
TAF
KGCK 130549Z 1306/1406 11012KT P6SM OVC015
     FM130900 14012KT P6SM OVC010
      TEMPO 1309/1313 5SM -DZSN OVC007
     FM131500 15015G23KT P6SM OVC020
     FM131800 17018G25KT P6SM SCT050
     FM140000 13012KT P6SM SKC=



000
FTUS43 KDDC 130549 RRA
TAFHYS
TAF
KHYS 130549Z 1306/1406 09009KT P6SM OVC007
     FM131800 16015G21KT P6SM OVC025
     FM132100 16015G21KT P6SM SCT060
     FM140000 14010KT P6SM SKC=



000
FTUS43 KDDC 130549 RRA
TAFHYS
TAF
KHYS 130549Z 1306/1406 09009KT P6SM OVC007
     FM131800 16015G21KT P6SM OVC025
     FM132100 16015G21KT P6SM SCT060
     FM140000 14010KT P6SM SKC=



000
FTUS43 KDDC 130549 RRA
TAFGCK
TAF
KGCK 130549Z 1306/1406 11012KT P6SM OVC015
     FM130900 14012KT P6SM OVC010
      TEMPO 1309/1313 5SM -DZSN OVC007
     FM131500 15015G23KT P6SM OVC020
     FM131800 17018G25KT P6SM SCT050
     FM140000 13012KT P6SM SKC=



000
FTUS43 KDDC 130549 RRA
TAFDDC
TAF
KDDC 130549Z 1306/1406 11007KT P6SM SCT015
     FM130800 11007KT P6SM OVC010
     FM131800 17018G25KT P6SM SCT110
     FM140000 13012KT P6SM SKC=



000
FTUS43 KDDC 130549 RRA
TAFHYS
TAF
KHYS 130549Z 1306/1406 09009KT P6SM OVC007
     FM131800 16015G21KT P6SM OVC025
     FM132100 16015G21KT P6SM SCT060
     FM140000 14010KT P6SM SKC=



000
FTUS43 KDDC 130549 RRA
TAFDDC
TAF
KDDC 130549Z 1306/1406 11007KT P6SM SCT015
     FM130800 11007KT P6SM OVC010
     FM131800 17018G25KT P6SM SCT110
     FM140000 13012KT P6SM SKC=



000
FTUS43 KDDC 122320
TAFDDC
TAF
KDDC 122320Z 1300/1324 04009KT P6SM FEW100
     FM130600 11007KT P6SM SCT050
     FM131800 17018G25KT P6SM SCT110=



000
FTUS43 KDDC 122320
TAFGCK
TAF
KGCK 122320Z 1300/1324 07012KT P6SM FEW100
     FM130600 11012KT P6SM OVC015
     FM130900 14012KT P6SM OVC015 PROB30 1309/1312 5SM -DZSN OVC007
     FM131500 15015G23KT P6SM OVC020
     FM131800 17018G25KT P6SM SCT050=



000
FTUS43 KDDC 122320
TAFHYS
TAF
KHYS 122320Z 1300/1324 08009KT P6SM OVC022
     FM130600 09009KT P6SM OVC007
     FM132100 16015KT P6SM SCT060=



000
FTUS43 KDDC 122209 AAA
TAFHYS
TAF AMD
KHYS 122209Z 1222/1318 07006KT P6SM OVC024
     FM130100 07010KT P6SM OVC040
     FM130800 10009KT P6SM BKN010=



000
FTUS43 KDDC 121730
TAFHYS
TAF
KHYS 121730Z 1218/1318 03010G15KT P6SM OVC010
     FM121900 04011KT P6SM SCT015
     FM122100 04010KT P6SM BKN050
     FM130100 07010KT P6SM OVC040
     FM130800 10009KT P6SM BKN010=



000
FTUS43 KDDC 121730
TAFGCK
TAF
KGCK 121730Z 1218/1318 05010KT P6SM SKC
     FM122100 09011KT P6SM SCT250
     FM130700 12011KT P6SM SCT020=



000
FTUS43 KDDC 121730
TAFDDC
TAF
KDDC 121730Z 1218/1318 04011KT P6SM SKC
      TEMPO 1218/1220 OVC010
     FM122300 07009KT P6SM SCT250
     FM130500 10010KT P6SM SCT020=



000
FTUS43 KDDC 121730
TAFDDC
TAF
KDDC 121730Z 1218/1318 04011KT P6SM SKC
      TEMPO 1218/1220 OVC010
     FM122300 07009KT P6SM SCT250
     FM130500 10010KT P6SM SCT020=



000
FTUS43 KDDC 121730
TAFGCK
TAF
KGCK 121730Z 1218/1318 05010KT P6SM SKC
     FM122100 09011KT P6SM SCT250
     FM130700 12011KT P6SM SCT020=



000
FTUS43 KDDC 121730
TAFHYS
TAF
KHYS 121730Z 1218/1318 03010G15KT P6SM OVC010
     FM121900 04011KT P6SM SCT015
     FM122100 04010KT P6SM BKN050
     FM130100 07010KT P6SM OVC040
     FM130800 10009KT P6SM BKN010=



000
FTUS43 KDDC 121730
TAFDDC
TAF
KDDC 121730Z 1218/1318 04011KT P6SM SKC
      TEMPO 1218/1220 OVC010
     FM122300 07009KT P6SM SCT250
     FM130500 10010KT P6SM SCT020=



000
FTUS43 KDDC 121730
TAFHYS
TAF
KHYS 121730Z 1218/1318 03010G15KT P6SM OVC010
     FM121900 04011KT P6SM SCT015
     FM122100 04010KT P6SM BKN050
     FM130100 07010KT P6SM OVC040
     FM130800 10009KT P6SM BKN010=



000
FTUS43 KDDC 121730
TAFGCK
TAF
KGCK 121730Z 1218/1318 05010KT P6SM SKC
     FM122100 09011KT P6SM SCT250
     FM130700 12011KT P6SM SCT020=



000
FTUS43 KDDC 121141
TAFHYS
TAF
KHYS 121141Z 1212/1312 01010KT P6SM SCT250
     FM121400 01008KT P6SM BKN020
     FM121700 06011KT P6SM OVC040
     FM130600 09010KT 5SM -FZDZ SCT015 BKN020=



000
FTUS43 KDDC 121141
TAFDDC
TAF
KDDC 121141Z 1212/1312 36008KT P6SM SCT250
     FM121800 05012KT P6SM SCT200
     FM130100 10012KT P6SM SCT150=



000
FTUS43 KDDC 121141
TAFGCK
TAF
KGCK 121141Z 1212/1312 36009KT P6SM SCT250
     FM121700 05012KT P6SM SCT250
     FM130100 10012KT P6SM BKN150=



000
FTUS43 KDDC 121141
TAFDDC
TAF
KDDC 121141Z 1212/1312 36008KT P6SM SCT250
     FM121800 05012KT P6SM SCT200
     FM130100 10012KT P6SM SCT150=



000
FTUS43 KDDC 121141
TAFDDC
TAF
KDDC 121141Z 1212/1312 36008KT P6SM SCT250
     FM121800 05012KT P6SM SCT200
     FM130100 10012KT P6SM SCT150=



000
FTUS43 KDDC 121141
TAFHYS
TAF
KHYS 121141Z 1212/1312 01010KT P6SM SCT250
     FM121400 01008KT P6SM BKN020
     FM121700 06011KT P6SM OVC040
     FM130600 09010KT 5SM -FZDZ SCT015 BKN020=



000
FTUS43 KDDC 121141
TAFGCK
TAF
KGCK 121141Z 1212/1312 36009KT P6SM SCT250
     FM121700 05012KT P6SM SCT250
     FM130100 10012KT P6SM BKN150=



000
FTUS43 KDDC 121141
TAFGCK
TAF
KGCK 121141Z 1212/1312 36009KT P6SM SCT250
     FM121700 05012KT P6SM SCT250
     FM130100 10012KT P6SM BKN150=



000
FTUS43 KDDC 121141
TAFHYS
TAF
KHYS 121141Z 1212/1312 01010KT P6SM SCT250
     FM121400 01008KT P6SM BKN020
     FM121700 06011KT P6SM OVC040
     FM130600 09010KT 5SM -FZDZ SCT015 BKN020=



000
FTUS43 KDDC 120520
TAFHYS
TAF
KHYS 120520Z 1206/1306 31009KT P6SM SCT150
     FM122100 03008KT P6SM BKN015
     FM130100 09014KT P6SM BKN008=



000
FTUS43 KDDC 120520
TAFGCK
TAF
KGCK 120520Z 1206/1306 34007KT P6SM FEW250
     FM121500 01007KT P6SM SCT250
     FM122100 07009KT P6SM SCT070
     FM130100 10013KT P6SM SCT200
     FM130300 10014KT P6SM OVC010=



000
FTUS43 KDDC 120520
TAFDDC
TAF
KDDC 120520Z 1206/1306 32008KT P6SM SCT250
     FM121500 03010KT P6SM SCT200
     FM121800 08013KT P6SM SCT200
     FM130300 10014KT P6SM OVC010=



000
FTUS43 KDDC 120520
TAFDDC
TAF
KDDC 120520Z 1206/1306 32008KT P6SM SCT250
     FM121500 03010KT P6SM SCT200
     FM121800 08013KT P6SM SCT200
     FM130300 10014KT P6SM OVC010=



000
FTUS43 KDDC 120520
TAFGCK
TAF
KGCK 120520Z 1206/1306 34007KT P6SM FEW250
     FM121500 01007KT P6SM SCT250
     FM122100 07009KT P6SM SCT070
     FM130100 10013KT P6SM SCT200
     FM130300 10014KT P6SM OVC010=



000
FTUS43 KDDC 112320
TAFDDC
TAF
KDDC 112320Z 1200/1224 21007KT P6SM FEW250
     FM121000 32008KT P6SM SCT250
     FM121700 03010KT P6SM SCT200=



000
FTUS43 KDDC 112320
TAFHYS
TAF
KHYS 112320Z 1200/1224 28004KT P6SM SCT200
     FM120500 31009KT P6SM SCT150
     FM122100 03008KT P6SM BKN015=



000
FTUS43 KDDC 112320
TAFGCK
TAF
KGCK 112320Z 1200/1224 23008KT P6SM FEW250
     FM120200 34007KT P6SM FEW250
     FM121500 01007KT P6SM SCT250
     FM122100 07009KT P6SM SCT070=



000
FTUS43 KDDC 112320
TAFDDC
TAF
KDDC 112320Z 1200/1224 21007KT P6SM FEW250
     FM121000 32008KT P6SM SCT250
     FM121700 03010KT P6SM SCT200=



000
FTUS43 KDDC 112320
TAFGCK
TAF
KGCK 112320Z 1200/1224 23008KT P6SM FEW250
     FM120200 34007KT P6SM FEW250
     FM121500 01007KT P6SM SCT250
     FM122100 07009KT P6SM SCT070=



000
FTUS43 KDDC 112320
TAFHYS
TAF
KHYS 112320Z 1200/1224 28004KT P6SM SCT200
     FM120500 31009KT P6SM SCT150
     FM122100 03008KT P6SM BKN015=



000
FTUS43 KDDC 112320
TAFDDC
TAF
KDDC 112320Z 1200/1224 21007KT P6SM FEW250
     FM121000 32008KT P6SM SCT250
     FM121700 03010KT P6SM SCT200=



000
FTUS43 KDDC 112320
TAFGCK
TAF
KGCK 112320Z 1200/1224 23008KT P6SM FEW250
     FM120200 34007KT P6SM FEW250
     FM121500 01007KT P6SM SCT250
     FM122100 07009KT P6SM SCT070=



000
FTUS43 KDDC 112320
TAFHYS
TAF
KHYS 112320Z 1200/1224 28004KT P6SM SCT200
     FM120500 31009KT P6SM SCT150
     FM122100 03008KT P6SM BKN015=



000
FTUS43 KDDC 112108 AAC
TAFGCK
TAF AMD
KGCK 112108Z 1121/1218 20012KT P6SM SCT200
     FM120000 32008KT P6SM BKN250=



000
FTUS43 KDDC 112008 AAB
TAFGCK
TAF AMD
KGCK 112008Z 1120/1218 23012G22KT P6SM SCT200
     FM120000 32008KT P6SM BKN250=



000
FTUS43 KDDC 112008 AAC
TAFDDC
TAF AMD
KDDC 112008Z 1120/1218 19012KT P6SM SCT200
     FM120300 31008KT P6SM BKN250=



000
FTUS43 KDDC 111905 AAA
TAFGCK
TAF AMD
KGCK 111905Z 1119/1218 20012G22KT P6SM SCT200
     FM120000 32008KT P6SM BKN250=



000
FTUS43 KDDC 111905 AAA
TAFGCK
TAF AMD
KGCK 111905Z 1119/1218 20012G22KT P6SM SCT200
     FM120000 32008KT P6SM BKN250=



000
FTUS43 KDDC 111905 AAA
TAFGCK
TAF AMD
KGCK 111905Z 1119/1218 20012G22KT P6SM SCT200
     FM120000 32008KT P6SM BKN250=



000
FTUS43 KDDC 111841 AAA
TAFHYS
TAF AMD
KHYS 111841Z 1119/1218 21005KT P6SM SCT200
     FM120000 31006KT P6SM BKN250
     FM121400 01006KT 4SM BR OVC004=



000
FTUS43 KDDC 111841 AAA
TAFHYS
TAF AMD
KHYS 111841Z 1119/1218 21005KT P6SM SCT200
     FM120000 31006KT P6SM BKN250
     FM121400 01006KT 4SM BR OVC004=



000
FTUS43 KDDC 111841 AAA
TAFHYS
TAF AMD
KHYS 111841Z 1119/1218 21005KT P6SM SCT200
     FM120000 31006KT P6SM BKN250
     FM121400 01006KT 4SM BR OVC004=



000
FTUS43 KDDC 111839 AAA
TAFDDC
TAF AMD
KDDC 111839Z 1119/1218 22008KT P6SM SCT200
     FM120300 31008KT P6SM BKN250=



000
FTUS43 KDDC 111839 AAA
TAFDDC
TAF AMD
KDDC 111839Z 1119/1218 22008KT P6SM SCT200
     FM120300 31008KT P6SM BKN250=



000
FTUS43 KDDC 111839 AAA
TAFDDC
TAF AMD
KDDC 111839Z 1119/1218 22008KT P6SM SCT200
     FM120300 31008KT P6SM BKN250=



000
FTUS43 KDDC 111720
TAFHYS
TAF
KHYS 111720Z 1118/1218 VRB03KT 5SM BR OVC005
     FM111900 VRB05KT P6SM SCT200
     FM120000 31006KT P6SM BKN250
     FM121400 01006KT 4SM BR OVC004=



000
FTUS43 KDDC 111720
TAFGCK
TAF
KGCK 111720Z 1118/1218 20008KT P6SM SCT200
     FM120000 32008KT P6SM BKN250=



000
FTUS43 KDDC 111720
TAFDDC
TAF
KDDC 111720Z 1118/1218 VRB05KT P6SM SCT200
     FM120300 31008KT P6SM BKN250=



000
FTUS43 KDDC 111720
TAFGCK
TAF
KGCK 111720Z 1118/1218 20008KT P6SM SCT200
     FM120000 32008KT P6SM BKN250=



000
FTUS43 KDDC 111720
TAFDDC
TAF
KDDC 111720Z 1118/1218 VRB05KT P6SM SCT200
     FM120300 31008KT P6SM BKN250=



    US Dept of Commerce
    National Oceanic and Atmospheric Administration
    National Weather Service
    1325 East West Highway
    Silver Spring, MD 20910
    Page Author: NWS Internet Services Team
Disclaimer
Information Quality
Credits
Glossary
Privacy Policy
Freedom of Information Act (FOIA)
About Us
Career Opportunities